SAST/TTG METAR and TAF weather

Enter ICAO airport designator
Station Type Date Time Source
SAST METAR 2021/03/25 09:25 UTC NOAA

SAST 250925Z 27002KT 8000 NSC 21/21 Q1009


Station Type Date Time Source
SAST Decoded METAR 2021/03/25 09:25 UTC NOAA

Tartagal Aerodrome, Argentina (SAST) 22-39S 063-49W 450M
Mar 25, 2021 - 05:25 AM EDT / 2021.03.25 0925 UTC
Wind: from the W (270 degrees) at 2 MPH (2 KT):0
Visibility: 4 mile(s):0
Temperature: 69 F (21 C)
Dew Point: 69 F (21 C)
Relative Humidity: 100%
Pressure (altimeter): 29.80 in. Hg (1009 hPa)
ob: SAST 250925Z 27002KT 8000 NSC 21/21 Q1009
cycle: 9

Station Type Date Time Source
SAST TAF UTC NOAA

Error!

Example: see airport list